Globe, Arizona
Current Conditions -  °F | °C
As of 7:47 PM on Tuesday 25 Nov 2014 (Local Time) from KIWA Reporting Station
Clear Clear  
Wind Chill: 10°   Ceiling: Unl
Heat Index: 10°   Visibility: 20mi
Dew Point: -12°   Wind: 0mph
Humidity: 20%   Direction: NA
Pressure: 30.32"   Gusts: NA
Location:  33.4°N, 110.78°W
Report Text: KIWA 260247Z 00000KT 20SM SKC 10/M12 A3032
Loading
Personal Weather Stations






























Interactive Weather Map New forecast layout! Learn more

10-Day Weather Forecast

Advertisements
Track Severe Weather on mobile